Time,TemperatureF,DewpointF,PressureIn,WindDirection,WindDirectionDegrees,WindSpeedMPH,WindSpeedGustMPH,Humidity,HourlyPrecipIn,Conditions,Clouds,dailyrainin,SoftwareType,DateUTC
2013-06-03 00:01:00,64.6,64.3,29.88,SW,225,0.0,0.0,99,0.00,,,0.00,pywws,2013-06-02 14:01:00,
2013-06-03 00:11:00,64.4,64.1,29.88,SW,225,0.0,0.7,99,0.00,,,0.00,pywws,2013-06-02 14:11:00,
2013-06-03 00:21:00,64.2,63.3,29.87,SW,225,0.0,0.0,97,0.00,,,0.00,pywws,2013-06-02 14:21:00,
2013-06-03 00:31:00,64.4,64.1,29.87,West,270,0.0,0.0,99,0.00,,,0.00,pywws,2013-06-02 14:31:00,
2013-06-03 00:41:00,64.2,63.3,29.87,SW,225,0.0,0.7,97,0.00,,,0.00,pywws,2013-06-02 14:41:00,
2013-06-03 00:51:00,64.0,63.2,29.87,SW,225,0.0,0.7,97,0.00,,,0.00,pywws,2013-06-02 14:51:00,
2013-06-03 01:01:00,63.9,63.0,29.86,SW,225,0.0,0.7,97,0.00,,,0.00,pywws,2013-06-02 15:01:00,
2013-06-03 01:11:00,63.9,63.0,29.86,SW,225,0.0,0.0,97,0.00,,,0.00,pywws,2013-06-02 15:11:00,
2013-06-03 01:21:00,63.7,62.8,29.86,SW,225,0.0,0.7,97,0.00,,,0.00,pywws,2013-06-02 15:21:00,
2013-06-03 01:31:00,63.7,62.8,29.85,SW,225,0.0,0.0,97,0.00,,,0.00,pywws,2013-06-02 15:31:00,
2013-06-03 01:41:00,63.5,62.6,29.85,SW,225,0.0,0.7,97,0.00,,,0.00,pywws,2013-06-02 15:41:00,
2013-06-03 01:51:00,63.5,62.6,29.85,SW,225,0.0,0.0,97,0.00,,,0.00,pywws,2013-06-02 15:51:00,
2013-06-03 02:01:00,63.3,62.5,29.84,SW,225,0.0,0.0,97,0.00,,,0.00,pywws,2013-06-02 16:01:00,
2013-06-03 02:11:00,63.1,62.3,29.84,SW,225,0.0,0.7,97,0.00,,,0.00,pywws,2013-06-02 16:11:00,
2013-06-03 02:21:00,63.1,62.3,29.83,NE,45,0.0,0.7,97,0.00,,,0.00,pywws,2013-06-02 16:21:00,
2013-06-03 02:31:00,63.0,62.1,29.84,SW,225,0.0,0.0,97,0.00,,,0.00,pywws,2013-06-02 16:31:00,
2013-06-03 02:41:00,62.8,61.9,29.83,SW,225,0.0,0.0,97,0.00,,,0.00,pywws,2013-06-02 16:41:00,
2013-06-03 02:51:00,62.8,61.9,29.83,SW,225,0.0,0.7,97,0.00,,,0.00,pywws,2013-06-02 16:51:00,
2013-06-03 03:01:00,62.6,61.7,29.83,SW,225,0.0,0.7,97,0.00,,,0.00,pywws,2013-06-02 17:01:00,
2013-06-03 03:11:00,62.6,61.7,29.83,SW,225,0.0,0.0,97,0.00,,,0.00,pywws,2013-06-02 17:11:00,
2013-06-03 03:21:00,62.6,61.7,29.82,SW,225,0.0,0.7,97,0.00,,,0.00,pywws,2013-06-02 17:21:00,
2013-06-03 03:31:00,62.2,61.7,29.82,SW,225,0.0,0.0,98,0.00,,,0.00,pywws,2013-06-02 17:31:00,
2013-06-03 03:41:00,62.1,61.5,29.82,West,270,0.7,1.6,98,0.00,,,0.00,pywws,2013-06-02 17:41:00,
2013-06-03 03:51:00,61.9,61.3,29.82,West,270,0.0,0.0,98,0.00,,,0.00,pywws,2013-06-02 17:51:00,
2013-06-03 04:01:00,61.9,61.3,29.83,SW,225,0.0,1.6,98,0.00,,,0.00,pywws,2013-06-02 18:01:00,
2013-06-03 04:11:00,61.9,61.3,29.83,SW,225,0.0,0.7,98,0.00,,,0.00,pywws,2013-06-02 18:11:00,
2013-06-03 04:21:00,62.1,61.5,29.83,SW,225,0.0,0.7,98,0.00,,,0.00,pywws,2013-06-02 18:21:00,
2013-06-03 04:31:00,61.9,61.3,29.83,West,270,0.7,1.6,98,0.00,,,0.00,pywws,2013-06-02 18:31:00,
2013-06-03 04:41:00,61.7,61.1,29.83,SW,225,0.0,0.7,98,0.00,,,0.00,pywws,2013-06-02 18:41:00,
2013-06-03 04:51:00,61.5,60.9,29.84,SW,225,0.0,0.7,98,0.00,,,0.00,pywws,2013-06-02 18:51:00,
2013-06-03 05:01:00,61.3,60.8,29.84,SW,225,0.0,0.0,98,0.00,,,0.00,pywws,2013-06-02 19:01:00,
2013-06-03 05:11:00,61.3,60.8,29.84,SW,225,0.0,0.0,98,0.00,,,0.00,pywws,2013-06-02 19:11:00,
2013-06-03 05:21:00,61.3,60.8,29.84,SW,225,0.7,1.6,98,0.00,,,0.00,pywws,2013-06-02 19:21:00,
2013-06-03 05:31:00,61.3,60.8,29.84,SW,225,0.0,0.0,98,0.00,,,0.00,pywws,2013-06-02 19:31:00,
2013-06-03 05:41:00,61.2,60.6,29.85,SW,225,0.0,0.0,98,0.00,,,0.00,pywws,2013-06-02 19:41:00,
2013-06-03 05:51:00,61.0,60.4,29.85,SW,225,0.0,0.0,98,0.00,,,0.00,pywws,2013-06-02 19:51:00,
2013-06-03 06:01:00,61.0,60.4,29.85,SW,225,0.0,0.7,98,0.00,,,0.00,pywws,2013-06-02 20:01:00,
2013-06-03 06:11:00,61.0,60.4,29.86,SW,225,0.0,0.0,98,0.00,,,0.00,pywws,2013-06-02 20:11:00,
2013-06-03 06:21:00,61.2,60.6,29.86,SW,225,0.0,0.7,98,0.00,,,0.00,pywws,2013-06-02 20:21:00,
2013-06-03 06:31:00,61.0,60.4,29.86,SW,225,0.0,0.7,98,0.00,,,0.00,pywws,2013-06-02 20:31:00,
2013-06-03 06:41:00,61.0,60.4,29.87,SW,225,0.0,0.7,98,0.00,,,0.00,pywws,2013-06-02 20:41:00,
2013-06-03 06:51:00,61.2,60.6,29.87,NW,315,0.0,0.0,98,0.00,,,0.00,pywws,2013-06-02 20:51:00,
2013-06-03 07:01:00,61.3,60.8,29.88,South,180,0.0,0.0,98,0.00,,,0.00,pywws,2013-06-02 21:01:00,
2013-06-03 07:11:00,62.2,61.7,29.88,SW,225,0.0,0.0,98,0.00,,,0.00,pywws,2013-06-02 21:11:00,
2013-06-03 07:21:00,63.7,62.8,29.88,East,90,0.0,0.0,97,0.00,,,0.00,pywws,2013-06-02 21:21:00,
2013-06-03 07:31:00,64.8,64.5,29.88,SE,135,0.0,0.0,99,0.00,,,0.00,pywws,2013-06-02 21:31:00,
2013-06-03 07:41:00,66.4,66.1,29.88,SE,135,0.0,0.0,99,0.00,,,0.00,pywws,2013-06-02 21:41:00,
2013-06-03 07:51:00,68.9,68.6,29.88,East,90,0.0,0.0,99,0.00,,,0.00,pywws,2013-06-02 21:51:00,
2013-06-03 08:01:00,70.5,68.1,29.88,NE,45,1.6,3.1,92,0.00,,,0.00,pywws,2013-06-02 22:01:00,
2013-06-03 08:11:00,71.1,65.6,29.88,NE,45,3.1,3.8,83,0.00,,,0.00,pywws,2013-06-02 22:11:00,
2013-06-03 08:21:00,72.0,65.1,29.88,NE,45,2.2,3.1,79,0.00,,,0.00,pywws,2013-06-02 22:21:00,
2013-06-03 08:31:00,73.8,66.1,29.89,NE,45,2.2,3.1,77,0.00,,,0.00,pywws,2013-06-02 22:31:00,
2013-06-03 08:41:00,73.6,66.3,29.89,NE,45,0.0,3.1,78,0.00,,,0.00,pywws,2013-06-02 22:41:00,
2013-06-03 08:51:00,75.0,68.1,29.89,NE,45,0.0,1.6,79,0.00,,,0.00,pywws,2013-06-02 22:51:00,
2013-06-03 09:01:00,74.7,66.6,29.89,NE,45,1.6,2.2,76,0.00,,,0.00,pywws,2013-06-02 23:01:00,
2013-06-03 09:11:00,75.0,67.7,29.89,NE,45,2.2,3.8,78,0.00,,,0.00,pywws,2013-06-02 23:11:00,
2013-06-03 09:21:00,75.0,66.9,29.88,NE,45,3.1,4.5,76,0.00,,,0.00,pywws,2013-06-02 23:21:00,
2013-06-03 09:31:00,76.3,67.8,29.88,East,90,0.0,0.7,75,0.00,,,0.00,pywws,2013-06-02 23:31:00,
2013-06-03 09:41:00,76.6,68.1,29.88,NE,45,2.2,3.8,75,0.00,,,0.00,pywws,2013-06-02 23:41:00,
2013-06-03 09:51:00,77.0,67.7,29.88,NE,45,3.1,4.5,73,0.00,,,0.00,pywws,2013-06-02 23:51:00,
2013-06-03 10:01:00,77.7,68.4,29.88,NE,45,3.1,6.0,73,0.00,,,0.00,pywws,2013-06-03 00:01:00,
2013-06-03 10:11:00,78.3,68.9,29.88,NE,45,2.2,3.8,73,0.00,,,0.00,pywws,2013-06-03 00:11:00,
2013-06-03 10:21:00,79.3,68.7,29.88,North,0,4.5,6.0,70,0.00,,,0.00,pywws,2013-06-03 00:21:00,
2013-06-03 10:31:00,81.0,68.9,29.87,NE,45,4.5,6.0,67,0.00,,,0.00,pywws,2013-06-03 00:31:00,
2013-06-03 10:41:00,81.1,68.7,29.86,NE,45,5.4,9.2,66,0.00,,,0.00,pywws,2013-06-03 00:41:00,
2013-06-03 10:51:00,82.6,69.6,29.87,NE,45,3.8,4.5,65,0.00,,,0.00,pywws,2013-06-03 00:51:00,
2013-06-03 11:01:00,82.6,67.7,29.86,NE,45,3.8,8.3,61,0.00,,,0.00,pywws,2013-06-03 01:01:00,
2013-06-03 11:11:00,83.8,68.4,29.86,NE,45,6.9,8.3,60,0.00,,,0.00,pywws,2013-06-03 01:11:00,
2013-06-03 11:21:00,83.8,69.4,29.86,ENE,68,3.8,5.4,62,0.00,,,0.00,pywws,2013-06-03 01:21:00,
2013-06-03 11:31:00,83.8,68.9,29.85,NE,45,3.8,5.4,61,0.00,,,0.00,pywws,2013-06-03 01:31:00,
2013-06-03 11:41:00,85.1,68.6,29.85,North,0,3.1,5.4,58,0.00,,,0.00,pywws,2013-06-03 01:41:00,
2013-06-03 11:51:00,84.9,69.5,29.85,East,90,3.1,6.0,60,0.00,,,0.00,pywws,2013-06-03 01:51:00,
2013-06-03 12:01:00,85.1,69.1,29.85,North,0,4.5,7.6,59,0.00,,,0.00,pywws,2013-06-03 02:01:00,
2013-06-03 12:11:00,84.2,67.3,29.85,NE,45,4.5,7.6,57,0.00,,,0.00,pywws,2013-06-03 02:11:00,
2013-06-03 12:21:00,84.9,68.5,29.84,NE,45,1.6,2.2,58,0.00,,,0.00,pywws,2013-06-03 02:21:00,
2013-06-03 12:31:00,87.1,69.4,29.84,NE,45,3.8,5.4,56,0.00,,,0.00,pywws,2013-06-03 02:31:00,
2013-06-03 12:41:00,85.1,68.1,29.84,NE,45,4.5,7.6,57,0.00,,,0.00,pywws,2013-06-03 02:41:00,
2013-06-03 12:51:00,86.5,68.9,29.83,NE,45,1.6,5.4,56,0.00,,,0.00,pywws,2013-06-03 02:51:00,
2013-06-03 13:01:00,86.5,68.4,29.83,NE,45,3.8,5.4,55,0.00,,,0.00,pywws,2013-06-03 03:01:00,
2013-06-03 13:11:00,86.0,68.4,29.83,North,0,1.6,3.8,56,0.00,,,0.00,pywws,2013-06-03 03:11:00,
2013-06-03 13:21:00,87.4,70.3,29.83,NE,45,5.4,6.0,57,0.00,,,0.00,pywws,2013-06-03 03:21:00,
2013-06-03 13:31:00,86.4,68.8,29.82,NE,45,3.1,3.8,56,0.00,,,0.00,pywws,2013-06-03 03:31:00,
2013-06-03 13:41:00,88.2,71.0,29.81,SE,135,0.7,4.5,57,0.00,,,0.00,pywws,2013-06-03 03:41:00,
2013-06-03 13:51:00,88.3,70.1,29.81,North,0,3.1,4.5,55,0.00,,,0.00,pywws,2013-06-03 03:51:00,
2013-06-03 14:01:00,86.7,69.6,29.81,East,90,4.5,7.6,57,0.00,,,0.00,pywws,2013-06-03 04:01:00,
2013-06-03 14:02:00,86.7,69.1,29.81,NE,45,3.8,6.0,56,0.00,,,0.00,pywws,2013-06-03 04:02:00,
2013-06-03 14:04:00,86.5,68.9,29.81,NE,45,6.9,8.3,56,0.00,,,0.00,pywws,2013-06-03 04:04:00,
2013-06-03 14:11:00,86.2,68.6,29.81,South,180,3.8,6.0,56,0.00,,,0.00,pywws,2013-06-03 04:11:00,
2013-06-03 14:14:00,86.9,70.3,29.81,East,90,2.2,3.8,58,0.00,,,0.00,pywws,2013-06-03 04:14:00,
2013-06-03 14:21:00,86.7,69.1,29.81,NNE,22,3.1,5.4,56,0.00,,,0.00,pywws,2013-06-03 04:21:00,
2013-06-03 14:31:00,86.9,69.8,29.81,NE,45,3.8,4.5,57,0.00,,,0.00,pywws,2013-06-03 04:31:00,
2013-06-03 14:41:00,86.7,70.1,29.81,North,0,2.2,3.1,58,0.00,,,0.00,pywws,2013-06-03 04:41:00,
2013-06-03 14:51:00,86.7,69.6,29.82,SE,135,1.6,3.8,57,0.00,,,0.00,pywws,2013-06-03 04:51:00,
2013-06-03 15:01:00,86.4,69.3,29.82,North,0,3.8,6.0,57,0.00,,,0.00,pywws,2013-06-03 05:01:00,
2013-06-03 15:12:00,86.9,70.3,29.81,NNE,22,3.8,5.4,58,0.00,,,0.00,pywws,2013-06-03 05:12:00,
2013-06-03 15:21:00,84.7,69.8,29.82,NE,45,3.8,7.6,61,0.00,,,0.00,pywws,2013-06-03 05:21:00,
2013-06-03 15:31:00,85.1,70.6,29.82,NE,45,3.1,5.4,62,0.00,,,0.00,pywws,2013-06-03 05:31:00,
2013-06-03 15:41:00,84.0,70.0,29.83,NE,45,3.8,6.0,63,0.00,,,0.00,pywws,2013-06-03 05:41:00,
2013-06-03 15:51:00,84.6,70.1,29.83,North,0,4.5,7.6,62,0.00,,,0.00,pywws,2013-06-03 05:51:00,
2013-06-03 16:01:00,85.3,71.2,29.83,NE,45,1.6,5.4,63,0.00,,,0.00,pywws,2013-06-03 06:01:00,
2013-06-03 16:12:00,85.5,70.4,29.83,NE,45,3.1,3.8,61,0.00,,,0.00,pywws,2013-06-03 06:12:00,
2013-06-03 16:21:00,85.6,71.1,29.84,North,0,1.6,5.4,62,0.00,,,0.00,pywws,2013-06-03 06:21:00,
2013-06-03 16:31:00,82.8,69.3,29.85,NNE,22,2.2,3.8,64,0.00,,,0.00,pywws,2013-06-03 06:31:00,
2013-06-03 16:41:00,83.1,70.1,29.85,SW,225,0.7,2.2,65,0.00,,,0.00,pywws,2013-06-03 06:41:00,
2013-06-03 16:51:00,81.3,69.3,29.86,East,90,0.0,0.7,67,0.00,,,0.00,pywws,2013-06-03 06:51:00,
2013-06-03 17:01:00,77.9,69.3,29.86,NE,45,0.7,1.6,75,0.00,,,0.00,pywws,2013-06-03 07:01:00,
2013-06-03 17:11:00,75.2,68.2,29.87,SW,225,0.0,0.7,79,0.00,,,0.00,pywws,2013-06-03 07:11:00,
2013-06-03 17:21:00,73.9,67.7,29.87,SW,225,0.7,1.6,81,0.00,,,0.00,pywws,2013-06-03 07:21:00,
2013-06-03 17:31:00,73.2,67.7,29.88,West,270,0.0,0.0,83,0.00,,,0.00,pywws,2013-06-03 07:31:00,
2013-06-03 17:41:00,72.3,66.9,29.88,NE,45,2.2,3.8,83,0.00,,,0.00,pywws,2013-06-03 07:41:00,
2013-06-03 17:51:00,72.3,66.9,29.89,NE,45,0.7,2.2,83,0.00,,,0.00,pywws,2013-06-03 07:51:00,
2013-06-03 18:01:00,72.1,66.7,29.89,SE,135,0.0,0.7,83,0.00,,,0.00,pywws,2013-06-03 08:01:00,
2013-06-03 18:11:00,72.0,66.5,29.89,East,90,0.0,0.7,83,0.00,,,0.00,pywws,2013-06-03 08:11:00,
2013-06-03 18:21:00,72.3,65.4,29.90,NE,45,1.6,5.4,79,0.00,,,0.00,pywws,2013-06-03 08:21:00,
2013-06-03 18:31:00,72.9,64.5,29.90,NE,45,5.4,7.6,75,0.00,,,0.00,pywws,2013-06-03 08:31:00,
2013-06-03 18:41:00,72.7,64.3,29.91,North,0,3.8,6.0,75,0.00,,,0.00,pywws,2013-06-03 08:41:00,
2013-06-03 18:51:00,72.5,63.7,29.91,East,90,3.1,4.5,74,0.00,,,0.00,pywws,2013-06-03 08:51:00,
2013-06-03 19:01:00,72.3,63.9,29.92,East,90,2.2,3.1,75,0.00,,,0.00,pywws,2013-06-03 09:01:00,
2013-06-03 19:11:00,71.6,64.7,29.92,NNE,22,0.0,1.6,79,0.00,,,0.00,pywws,2013-06-03 09:11:00,
2013-06-03 19:21:00,70.3,64.6,29.92,NE,45,1.6,3.8,82,0.00,,,0.00,pywws,2013-06-03 09:21:00,
2013-06-03 19:31:00,69.8,64.4,29.92,East,90,3.1,4.5,83,0.00,,,0.00,pywws,2013-06-03 09:31:00,
2013-06-03 19:41:00,70.2,64.7,29.92,South,180,0.0,0.0,83,0.00,,,0.00,pywws,2013-06-03 09:41:00,
2013-06-03 19:51:00,68.9,64.2,29.92,South,180,0.0,0.7,85,0.00,,,0.00,pywws,2013-06-03 09:51:00,
2013-06-03 20:01:00,68.2,64.2,29.93,South,180,0.0,0.7,87,0.00,,,0.00,pywws,2013-06-03 10:01:00,
2013-06-03 20:11:00,67.5,64.4,29.93,South,180,0.0,0.7,90,0.00,,,0.00,pywws,2013-06-03 10:11:00,
2013-06-03 20:21:00,67.1,64.4,29.93,South,180,0.0,0.0,91,0.00,,,0.00,pywws,2013-06-03 10:21:00,
2013-06-03 20:31:00,66.7,64.3,29.94,SE,135,0.7,1.6,92,0.00,,,0.00,pywws,2013-06-03 10:31:00,
2013-06-03 20:41:00,66.7,64.3,29.94,SW,225,0.0,0.7,92,0.00,,,0.00,pywws,2013-06-03 10:41:00,
2013-06-03 20:51:00,66.6,63.8,29.95,West,270,0.0,0.7,91,0.00,,,0.00,pywws,2013-06-03 10:51:00,
2013-06-03 21:01:00,66.6,63.8,29.95,West,270,0.0,0.0,91,0.00,,,0.00,pywws,2013-06-03 11:01:00,
2013-06-03 21:11:00,66.4,63.7,29.96,North,0,0.0,0.7,91,0.00,,,0.00,pywws,2013-06-03 11:11:00,
2013-06-03 21:21:00,66.7,64.3,29.96,South,180,0.7,1.6,92,0.00,,,0.00,pywws,2013-06-03 11:21:00,
2013-06-03 21:31:00,68.0,65.0,29.96,SE,135,0.0,0.7,90,0.00,,,0.00,pywws,2013-06-03 11:31:00,
2013-06-03 21:41:00,68.4,64.7,29.96,NW,315,0.7,2.2,88,0.00,,,0.00,pywws,2013-06-03 11:41:00,
2013-06-03 21:51:00,69.3,64.9,29.97,East,90,0.7,1.6,86,0.00,,,0.00,pywws,2013-06-03 11:51:00,
2013-06-03 22:01:00,69.3,64.6,29.97,NE,45,0.7,3.1,85,0.00,,,0.00,pywws,2013-06-03 12:01:00,
2013-06-03 22:11:00,69.6,64.9,29.97,SW,225,0.7,1.6,85,0.00,,,0.00,pywws,2013-06-03 12:11:00,
2013-06-03 22:21:00,69.6,64.9,29.97,North,0,3.1,4.5,85,0.00,,,0.00,pywws,2013-06-03 12:21:00,
2013-06-03 22:31:00,69.6,64.6,29.97,NE,45,2.2,3.8,84,0.00,,,0.00,pywws,2013-06-03 12:31:00,
2013-06-03 22:41:00,69.4,64.4,29.97,NE,45,0.7,2.2,84,0.00,,,0.00,pywws,2013-06-03 12:41:00,
2013-06-03 22:51:00,69.3,64.6,29.97,NNE,22,0.7,1.6,85,0.00,,,0.00,pywws,2013-06-03 12:51:00,
2013-06-03 23:01:00,68.9,64.2,29.97,NE,45,0.7,2.2,85,0.00,,,0.00,pywws,2013-06-03 13:01:00,
2013-06-03 23:11:00,68.7,64.4,29.96,NE,45,2.2,4.5,86,0.00,,,0.00,pywws,2013-06-03 13:11:00,
2013-06-03 23:21:00,68.5,64.2,29.97,NE,45,1.6,3.1,86,0.00,,,0.00,pywws,2013-06-03 13:21:00,
2013-06-03 23:31:00,67.8,64.1,29.96,NE,45,1.6,2.2,88,0.00,,,0.00,pywws,2013-06-03 13:31:00,
2013-06-03 23:41:00,67.5,64.1,29.97,NE,45,0.7,2.2,89,0.00,,,0.00,pywws,2013-06-03 13:41:00,
2013-06-03 23:51:00,67.1,64.1,29.96,SW,225,0.0,0.0,90,0.00,,,0.00,pywws,2013-06-03 13:51:00,